Time;durP1;ratioP1;P1;durP2;ratioP2;P2;SDS_P1;SDS_P2;PMS_P1;PMS_P2;Temp;Humidity;BMP_temperature;BMP_pressure;BME280_temperature;BME280_humidity;BME280_pressure;Samples;Min_cycle;Max_cycle;Signal;HPM_P1;HPM_P2
2022/09/13 00:01:27;;;;;;;10.02;6.20;;;;;;;17.64;100.00;100816.09;5033265;28;20029;-76
2022/09/13 00:04:22;;;;;;;;;;;;;;;;;;;;;
2022/09/13 00:07:11;;;;;;;9.65;6.00;;;;;;;17.64;100.00;100824.28;5052148;28;20090;-76
2022/09/13 00:09:47;;;;;;;11.73;7.00;;;;;;;17.66;100.00;100824.81;5057034;28;20416;-76
2022/09/13 00:12:43;;;;;;;10.15;6.50;;;;;;;17.70;100.00;100828.66;5051334;28;20037;-75
2022/09/13 00:15:15;;;;;;;6.60;5.60;;;;;;;17.70;100.00;100828.66;5050606;28;20051;-76
2022/09/13 00:18:52;;;;;;;9.40;6.18;;;;;;;17.71;100.00;100824.84;5050992;28;20058;-75
2022/09/13 00:22:08;;;;;;;;;;;;;;;;;;;;;
2022/09/13 00:25:00;;;;;;;9.70;6.07;;;;;;;17.67;100.00;100812.78;5049232;28;20040;-76
2022/09/13 00:27:53;;;;;;;7.47;5.85;;;;;;;17.68;100.00;100809.78;5031988;28;20077;-76
2022/09/13 00:30:42;;;;;;;10.60;6.20;;;;;;;17.63;100.00;100807.03;5048389;28;20432;-75
2022/09/13 00:33:24;;;;;;;9.40;6.22;;;;;;;17.63;100.00;100807.03;5051318;28;20020;-75
2022/09/13 00:36:23;;;;;;;8.60;6.68;;;;;;;17.67;100.00;100812.78;5050428;28;20032;-75
2022/09/13 00:39:03;;;;;;;8.35;6.38;;;;;;;17.62;100.00;100799.09;5017368;28;20040;-75
2022/09/13 00:41:37;;;;;;;17.17;6.47;;;;;;;17.62;100.00;100799.94;5028375;28;20048;-75
2022/09/13 00:44:52;;;;;;;11.55;6.15;;;;;;;17.67;100.00;100793.66;5031661;28;20038;-75
2022/09/13 00:48:05;;;;;;;11.77;6.80;;;;;;;17.69;100.00;100795.03;5030799;28;20037;-75
2022/09/13 00:53:58;;;;;;;11.90;7.10;;;;;;;17.66;100.00;100784.63;4963942;28;20435;-75
2022/09/13 00:56:53;;;;;;;16.02;7.28;;;;;;;17.64;100.00;100775.03;5019868;28;20466;-75
2022/09/13 00:59:37;;;;;;;8.63;6.50;;;;;;;17.66;100.00;100779.16;5014749;28;20087;-75
2022/09/13 01:02:36;;;;;;;;;;;;;;;;;;;;;
2022/09/13 01:08:57;;;;;;;12.40;6.35;;;;;;;17.65;100.00;100776.69;5028680;28;20042;-76
2022/09/13 01:12:03;;;;;;;17.58;7.40;;;;;;;17.62;100.00;100772.56;5033820;28;20025;-76
2022/09/13 01:14:59;;;;;;;;;;;;;;;;;;;;;
2022/09/13 01:17:45;;;;;;;9.00;6.30;;;;;;;17.67;100.00;100774.50;5036056;28;20047;-75
2022/09/13 01:20:23;;;;;;;10.75;7.20;;;;;;;17.67;100.00;100778.03;5033030;28;20075;-76
2022/09/13 01:23:26;;;;;;;7.07;6.35;;;;;;;17.72;100.00;100782.69;5037279;28;20043;-75
2022/09/13 01:26:32;;;;;;;6.95;6.13;;;;;;;17.68;100.00;100776.94;5038590;28;20036;-76
2022/09/13 01:29:06;;;;;;;14.65;6.60;;;;;;;17.68;100.00;100776.13;5043884;28;20489;-75
2022/09/13 01:31:58;;;;;;;7.82;6.50;;;;;;;17.61;100.00;100770.94;5034533;28;20033;-75
2022/09/13 01:34:59;;;;;;;13.88;6.70;;;;;;;17.63;100.00;100765.19;5044611;28;20052;-75
2022/09/13 01:37:52;;;;;;;8.93;6.03;;;;;;;17.57;100.00;100769.00;5032612;28;20029;-76
2022/09/13 01:41:04;;;;;;;8.05;6.18;;;;;;;17.58;100.00;100771.47;5048969;28;20081;-76
2022/09/13 01:44:17;;;;;;;7.38;6.07;;;;;;;17.56;100.00;100761.88;5053128;28;20115;-74
2022/09/13 01:47:11;;;;;;;8.68;6.53;;;;;;;17.51;100.00;100760.81;5044893;28;20025;-76
2022/09/13 01:49:56;;;;;;;7.75;6.53;;;;;;;17.53;100.00;100769.56;5032768;28;20159;-76
2022/09/13 01:52:54;;;;;;;9.57;6.60;;;;;;;17.52;100.00;100754.22;5045326;28;20036;-75
2022/09/13 01:55:28;;;;;;;8.43;5.80;;;;;;;17.53;100.00;100766.00;5026791;28;20029;-76
2022/09/13 01:58:08;;;;;;;7.00;5.97;;;;;;;17.45;100.00;100748.25;5033251;28;20087;-75
2022/09/13 02:01:03;;;;;;;6.65;6.00;;;;;;;17.47;100.00;100758.91;5030271;28;20025;-75
2022/09/13 02:03:54;;;;;;;8.52;6.00;;;;;;;17.43;100.00;100761.34;5045164;28;20072;-75
2022/09/13 02:06:46;;;;;;;9.57;5.90;;;;;;;17.45;100.00;100766.53;5032359;28;20458;-76
2022/09/13 02:09:40;;;;;;;12.18;6.00;;;;;;;17.46;100.00;100760.81;5031930;28;20515;-75
2022/09/13 02:12:48;;;;;;;;;;;;;;;;;;;;;
2022/09/13 02:15:49;;;;;;;8.95;6.15;;;;;;;17.44;100.00;100760.25;5034255;28;20041;-75
2022/09/13 02:18:34;;;;;;;6.95;6.10;;;;;;;17.42;100.00;100762.47;5056765;28;20072;-75
2022/09/13 02:21:40;;;;;;;6.78;5.68;;;;;;;17.42;100.00;100754.25;5042731;28;20523;-75
2022/09/13 02:24:30;;;;;;;7.20;5.65;;;;;;;17.40;100.00;100759.16;5032235;28;20041;-75
2022/09/13 02:27:13;;;;;;;9.07;6.47;;;;;;;17.39;100.00;100760.25;5046795;28;20373;-75
2022/09/13 02:29:47;;;;;;;10.48;6.28;;;;;;;17.42;100.00;100767.94;5039463;28;20090;-76
2022/09/13 02:32:30;;;;;;;7.85;5.78;;;;;;;17.37;100.00;100770.66;5032572;28;20029;-75
2022/09/13 02:35:12;;;;;;;6.88;5.88;;;;;;;17.36;100.00;100774.47;5032414;28;20029;-75
2022/09/13 02:38:03;;;;;;;9.70;6.20;;;;;;;17.37;100.00;100767.91;5049819;28;20035;-75
2022/09/13 02:44:33;;;;;;;6.95;5.82;;;;;;;17.42;100.00;100789.81;5017152;28;20470;-75
2022/09/13 02:47:55;;;;;;;7.80;6.40;;;;;;;17.42;100.00;100787.09;5058184;28;20175;-76
2022/09/13 02:50:56;;;;;;;10.13;6.32;;;;;;;17.41;100.00;100790.91;5049308;28;20087;-75
2022/09/13 02:54:12;;;;;;;7.93;6.05;;;;;;;17.36;100.00;100785.41;5031267;28;20033;-75
2022/09/13 02:57:26;;;;;;;9.55;6.40;;;;;;;17.34;100.00;100785.69;5032946;28;20041;-76
2022/09/13 02:59:58;;;;;;;8.25;6.13;;;;;;;17.34;100.00;100787.59;5032321;28;20121;-75
2022/09/13 03:08:45;;;;;;;10.85;6.10;;;;;;;17.32;100.00;100779.66;5043047;28;20039;-75
2022/09/13 03:11:44;;;;;;;8.98;6.13;;;;;;;17.36;100.00;100790.88;5031712;28;20028;-75
2022/09/13 03:14:27;;;;;;;8.90;6.55;;;;;;;17.34;100.00;100780.22;5061333;28;20029;-75
2022/09/13 03:17:18;;;;;;;6.97;6.20;;;;;;;17.37;100.00;100787.06;5053924;28;20434;-75
2022/09/13 03:20:11;;;;;;;9.70;6.15;;;;;;;17.28;100.00;100775.03;5036032;28;20035;-75
2022/09/13 03:23:21;;;;;;;11.00;6.20;;;;;;;17.35;100.00;100784.59;5035894;28;20101;-75
2022/09/13 03:26:30;;;;;;;7.45;5.80;;;;;;;17.38;100.00;100782.41;5042494;28;20036;-75
2022/09/13 03:29:53;;;;;;;9.20;5.60;;;;;;;17.36;100.00;100769.00;5036196;28;20053;-75
2022/09/13 03:33:03;;;;;;;10.07;5.55;;;;;;;17.36;100.00;100785.41;5034010;28;20532;-75
2022/09/13 03:36:12;;;;;;;7.28;5.75;;;;;;;17.33;100.00;100764.91;5039070;28;20025;-75
2022/09/13 03:39:28;;;;;;;11.65;6.40;;;;;;;17.39;100.00;100760.25;5049440;28;20091;-75
2022/09/13 03:42:17;;;;;;;10.77;5.97;;;;;;;17.36;100.00;100775.31;5018553;28;20091;-75
2022/09/13 03:45:19;;;;;;;8.18;5.85;;;;;;;17.31;100.00;100769.00;5054790;28;20095;-75
2022/09/13 03:48:17;;;;;;;7.38;5.65;;;;;;;17.32;100.00;100774.19;5047077;28;20088;-75
2022/09/13 03:51:21;;;;;;;8.18;6.55;;;;;;;17.30;100.00;100761.88;5035278;28;20029;-75
2022/09/13 03:54:42;;;;;;;8.10;6.03;;;;;;;17.30;100.00;100760.00;5035227;28;20079;-75
2022/09/13 03:57:49;;;;;;;8.48;6.15;;;;;;;17.26;100.00;100753.41;5047981;28;20088;-75
2022/09/13 04:00:39;;;;;;;7.80;5.43;;;;;;;17.25;100.00;100750.94;5062952;28;20086;-75
2022/09/13 04:03:08;;;;;;;9.05;5.85;;;;;;;17.20;100.00;100750.97;5068917;28;20057;-75
2022/09/13 04:05:37;;;;;;;6.82;5.82;;;;;;;17.23;100.00;100767.63;5055051;28;20047;-75
2022/09/13 04:08:13;;;;;;;7.57;6.20;;;;;;;17.18;100.00;100762.13;5036472;28;20041;-75
2022/09/13 04:11:09;;;;;;;11.75;5.88;;;;;;;17.23;100.00;100767.63;5069936;28;20074;-75
2022/09/13 04:13:37;;;;;;;7.60;5.95;;;;;;;17.19;100.00;100777.47;5074758;28;20024;-75
2022/09/13 04:19:53;;;;;;;9.50;5.82;;;;;;;17.20;100.00;100781.03;5058003;28;20469;-75
2022/09/13 04:22:33;;;;;;;7.80;5.70;;;;;;;17.17;100.00;100785.13;5055323;28;20025;-75
2022/09/13 04:25:16;;;;;;;8.18;6.40;;;;;;;17.20;100.00;100794.72;5055801;28;20073;-75
2022/09/13 04:30:51;;;;;;;9.10;5.95;;;;;;;17.09;100.00;100794.69;5059528;28;20437;-75
2022/09/13 04:33:34;;;;;;;11.65;6.65;;;;;;;17.07;100.00;100790.56;5065173;28;20640;-75
2022/09/13 04:36:17;;;;;;;9.32;6.15;;;;;;;17.03;100.00;100792.19;5066817;28;20021;-75
2022/09/13 04:38:54;;;;;;;8.68;6.07;;;;;;;16.96;100.00;100803.41;5043255;28;20074;-76
2022/09/13 04:41:27;;;;;;;6.80;6.10;;;;;;;16.98;100.00;100801.19;5053928;28;20016;-75
2022/09/13 04:44:03;;;;;;;;;;;;;;;;;;;;;
2022/09/13 04:46:34;;;;;;;11.88;6.43;;;;;;;16.89;100.00;100809.09;5054736;28;20025;-75
2022/09/13 04:49:00;;;;;;;9.73;6.55;;;;;;;16.88;100.00;100812.94;5053838;28;20101;-75
2022/09/13 04:51:25;;;;;;;9.60;6.82;;;;;;;16.92;100.00;100807.75;5054898;28;20107;-75
2022/09/13 04:53:53;;;;;;;8.25;6.22;;;;;;;16.91;100.00;100806.09;5053498;28;20120;-74
2022/09/13 04:56:18;;;;;;;8.45;7.03;;;;;;;16.90;100.00;100807.22;5054228;28;20033;-75
2022/09/13 04:58:44;;;;;;;6.88;6.03;;;;;;;16.93;100.00;100809.41;5072331;28;20070;-75
2022/09/13 05:01:10;;;;;;;9.50;6.35;;;;;;;16.90;100.00;100815.41;5050915;28;20052;-75
2022/09/13 05:03:36;;;;;;;9.18;6.40;;;;;;;16.86;100.00;100814.25;5064172;28;20053;-75
2022/09/13 05:06:06;;;;;;;11.68;6.95;;;;;;;16.90;100.00;100801.75;5073676;28;20103;-75
2022/09/13 05:08:32;;;;;;;8.07;6.53;;;;;;;16.89;100.00;100791.88;5073528;28;20036;-76
2022/09/13 05:10:58;;;;;;;8.07;6.72;;;;;;;16.88;100.00;100795.69;5079093;28;20544;-77
2022/09/13 05:13:24;;;;;;;11.38;7.25;;;;;;;16.88;100.00;100802.00;5073583;28;20060;-74
2022/09/13 05:15:57;;;;;;;13.63;7.20;;;;;;;16.88;100.00;100810.22;5073659;28;20078;-77
2022/09/13 05:18:25;;;;;;;8.18;6.50;;;;;;;16.88;100.00;100806.63;5073739;28;20366;-78
2022/09/13 05:20:54;;;;;;;10.27;6.70;;;;;;;16.82;100.00;100800.31;5087538;28;20036;-74
2022/09/13 05:23:20;;;;;;;8.02;6.40;;;;;;;16.84;100.00;100801.69;5073379;28;20032;-77
2022/09/13 05:25:46;;;;;;;9.77;7.10;;;;;;;16.88;100.00;100812.09;5076133;28;20028;-74
2022/09/13 05:28:11;;;;;;;9.40;6.95;;;;;;;16.87;100.00;100805.00;5093987;28;20504;-75
2022/09/13 05:30:36;;;;;;;10.27;6.90;;;;;;;16.91;100.00;100806.94;5085616;28;20112;-77
2022/09/13 05:33:03;;;;;;;10.73;6.78;;;;;;;16.92;100.00;100813.22;5073055;28;20051;-76
2022/09/13 05:35:28;;;;;;;11.05;7.57;;;;;;;16.93;100.00;100815.69;5071765;28;20071;-78
2022/09/13 05:37:53;;;;;;;13.38;6.93;;;;;;;16.93;100.00;100821.16;5093294;28;20373;-73
2022/09/13 05:40:18;;;;;;;12.48;6.85;;;;;;;16.95;100.00;100819.00;5090913;28;20028;-75
2022/09/13 05:42:44;;;;;;;9.52;6.70;;;;;;;16.92;100.00;100819.50;5072886;28;20071;-74
2022/09/13 05:45:09;;;;;;;14.40;6.75;;;;;;;16.96;100.00;100826.06;5073052;28;20025;-74
2022/09/13 05:47:34;;;;;;;11.25;6.50;;;;;;;16.99;100.00;100830.19;5074515;28;20460;-73
2022/09/13 05:50:00;;;;;;;9.00;6.75;;;;;;;16.93;100.00;100820.34;5073742;28;20172;-74
2022/09/13 05:52:25;;;;;;;8.68;6.82;;;;;;;16.97;100.00;100825.00;5084045;28;20043;-74
2022/09/13 05:54:50;;;;;;;9.05;7.05;;;;;;;16.96;100.00;100826.06;5072674;28;20342;-74
2022/09/13 05:57:16;;;;;;;10.65;6.88;;;;;;;17.01;100.00;100822.53;5072305;28;20033;-74
2022/09/13 05:59:41;;;;;;;12.57;6.70;;;;;;;16.97;100.00;100822.25;5087845;28;20038;-74
2022/09/13 06:02:08;;;;;;;11.63;6.55;;;;;;;16.98;100.00;100823.06;5098890;28;20152;-74
2022/09/13 06:04:34;;;;;;;9.90;6.90;;;;;;;17.01;100.00;100822.53;5113032;28;20047;-75
2022/09/13 06:06:59;;;;;;;9.52;7.00;;;;;;;17.02;100.00;100824.19;5082323;28;20228;-76
2022/09/13 06:09:25;;;;;;;9.57;7.53;;;;;;;17.06;100.00;100817.09;5088957;28;20410;-75
2022/09/13 06:11:50;;;;;;;14.13;7.43;;;;;;;17.07;100.00;100816.00;5079471;28;20070;-75
2022/09/13 06:14:15;;;;;;;14.27;8.02;;;;;;;17.10;100.00;100811.91;5078310;28;20028;-75
2022/09/13 06:16:40;;;;;;;10.52;7.60;;;;;;;17.13;100.00;100814.91;5072120;28;20025;-75
2022/09/13 06:19:06;;;;;;;13.00;7.90;;;;;;;17.10;100.00;100814.63;5072458;28;20031;-75
2022/09/13 06:21:31;;;;;;;12.30;7.72;;;;;;;17.14;100.00;100822.03;5072121;28;20483;-75
2022/09/13 06:23:56;;;;;;;12.55;7.95;;;;;;;17.13;100.00;100814.91;5072059;28;20036;-75
2022/09/13 06:26:27;;;;;;;17.15;8.20;;;;;;;17.18;100.00;100823.13;5073374;28;20349;-75
2022/09/13 06:28:56;;;;;;;14.30;7.97;;;;;;;17.21;100.00;100816.31;5071954;28;20032;-75
2022/09/13 06:31:24;;;;;;;15.55;8.27;;;;;;;17.22;100.00;100817.13;5086394;28;20028;-75
2022/09/13 06:33:56;;;;;;;17.60;8.93;;;;;;;17.23;100.00;100807.84;5073612;28;20039;-76
2022/09/13 06:36:21;;;;;;;25.13;8.80;;;;;;;17.25;100.00;100811.13;5082438;28;20028;-76
2022/09/13 06:38:47;;;;;;;16.90;8.73;;;;;;;17.29;100.00;100820.44;5077248;28;20368;-75
2022/09/13 06:41:17;;;;;;;20.30;8.38;;;;;;;17.32;100.00;100803.47;5082873;28;20575;-75
2022/09/13 06:43:43;;;;;;;13.25;8.90;;;;;;;17.34;100.00;100804.81;5071491;28;20073;-75
2022/09/13 06:46:11;;;;;;;22.35;9.20;;;;;;;17.38;100.00;100805.13;5071864;28;20028;-77
2022/09/13 06:48:38;;;;;;;16.75;8.52;;;;;;;17.39;100.00;100811.41;5074801;28;20020;-76
2022/09/13 06:51:09;;;;;;;13.52;8.85;;;;;;;17.41;100.00;100815.53;5073306;28;20124;-78
2022/09/13 06:53:35;;;;;;;12.73;8.38;;;;;;;17.43;100.00;100813.31;5083089;28;20051;-76
2022/09/13 06:56:13;;;;;;;14.50;8.95;;;;;;;17.46;100.00;100817.44;5071498;28;20028;-77
2022/09/13 06:58:40;;;;;;;13.40;9.02;;;;;;;17.45;100.00;100815.78;5071933;28;20078;-77
2022/09/13 07:01:21;;;;;;;16.80;8.75;;;;;;;17.51;100.00;100817.44;5069508;28;20068;-76
2022/09/13 07:03:58;;;;;;;21.77;10.18;;;;;;;17.52;100.00;100819.91;5080682;28;20063;-77
2022/09/13 07:06:26;;;;;;;14.52;9.10;;;;;;;17.55;100.00;100813.06;5075047;28;20481;-77
2022/09/13 07:08:53;;;;;;;19.63;9.70;;;;;;;17.56;100.00;100816.63;5077116;28;20108;-77
2022/09/13 07:11:22;;;;;;;16.00;9.02;;;;;;;17.56;100.00;100806.50;5075997;28;20025;-77
2022/09/13 07:13:52;;;;;;;21.13;9.52;;;;;;;17.63;100.00;100820.72;5093684;28;20023;-77
2022/09/13 07:16:19;;;;;;;18.02;9.95;;;;;;;17.71;100.00;100813.91;5091955;28;20364;-77
2022/09/13 07:18:53;;;;;;;15.00;9.35;;;;;;;17.73;100.00;100808.16;5093455;28;20114;-77
2022/09/13 07:21:19;;;;;;;20.42;10.38;;;;;;;17.76;100.00;100811.16;5096976;28;20052;-76
2022/09/13 07:23:44;;;;;;;16.40;9.73;;;;;;;17.81;100.00;100816.63;5097526;28;20024;-78
2022/09/13 07:26:10;;;;;;;15.05;10.10;;;;;;;17.85;100.00;100814.97;5097346;28;20050;-74
2022/09/13 07:28:39;;;;;;;18.35;11.75;;;;;;;17.89;100.00;100823.50;5087962;28;20035;-76
2022/09/13 07:31:15;;;;;;;22.02;11.00;;;;;;;17.95;100.00;100829.78;5096441;28;20028;-77
2022/09/13 07:33:42;;;;;;;18.33;11.15;;;;;;;17.95;100.00;100825.16;5093620;28;20028;-78
2022/09/13 07:36:08;;;;;;;18.92;11.70;;;;;;;18.00;100.00;100827.88;5092205;28;20054;-75
2022/09/13 07:38:44;;;;;;;18.70;11.35;;;;;;;18.06;100.00;100828.69;5089098;28;20032;-76
2022/09/13 07:41:13;;;;;;;19.58;12.13;;;;;;;18.10;100.00;100826.22;5085247;28;20550;-75
2022/09/13 07:43:38;;;;;;;16.48;13.30;;;;;;;18.17;100.00;100835.78;5085763;28;20024;-77
2022/09/13 07:46:09;;;;;;;16.60;13.23;;;;;;;18.23;100.00;100836.59;5074289;28;20047;-76
2022/09/13 07:48:36;;;;;;;21.27;14.63;;;;;;;18.27;100.00;100836.84;5091960;28;20408;-78
2022/09/13 07:51:04;;;;;;;21.20;13.82;;;;;;;18.32;100.00;100843.16;5078636;28;20028;-76
2022/09/13 07:53:31;;;;;;;19.08;14.50;;;;;;;18.39;100.00;100840.13;5073636;28;20028;-79
2022/09/13 07:56:05;;;;;;;24.88;14.70;;;;;;;18.43;100.00;100838.47;5077209;28;20070;-76
2022/09/13 07:58:32;;;;;;;28.80;15.77;;;;;;;18.47;100.00;100847.78;5085733;28;20039;-76
2022/09/13 08:01:02;;;;;;;20.88;16.00;;;;;;;18.52;100.00;100844.19;5095082;28;20047;-75
2022/09/13 08:03:29;;;;;;;22.67;15.63;;;;;;;18.55;100.00;100844.44;5108838;28;20431;-75
2022/09/13 08:05:57;;;;;;;26.77;16.05;;;;;;;18.60;100.00;100844.44;5079885;28;20151;-75
2022/09/13 08:08:22;;;;;;;22.63;16.10;;;;;;;18.67;100.00;100852.34;5092339;28;20032;-75
2022/09/13 08:10:47;;;;;;;25.40;16.60;;;;;;;18.73;100.00;100855.91;5083739;28;20502;-77
2022/09/13 08:13:15;;;;;;;24.00;16.73;;;;;;;18.77;100.00;100849.59;5091430;28;20027;-75
2022/09/13 08:15:41;;;;;;;24.10;16.88;;;;;;;18.85;100.00;100848.22;5082430;28;20024;-74
2022/09/13 08:18:06;;;;;;;22.38;17.77;;;;;;;18.92;100.00;100846.00;5073194;28;20023;-76
2022/09/13 08:20:36;;;;;;;21.73;17.17;;;;;;;18.95;100.00;100852.84;5090218;28;20525;-75
2022/09/13 08:23:01;;;;;;;22.55;17.70;;;;;;;19.02;100.00;100852.53;5056440;28;20036;-77
2022/09/13 08:25:26;;;;;;;18.77;14.80;;;;;;;19.04;100.00;100850.34;5089990;28;20031;-77
2022/09/13 08:27:52;;;;;;;25.67;18.15;;;;;;;19.09;100.00;100855.78;5075256;28;20025;-76
2022/09/13 08:30:17;;;;;;;26.08;18.08;;;;;;;19.15;100.00;100862.88;5078890;28;20448;-76
2022/09/13 08:32:42;;;;;;;22.60;17.13;;;;;;;19.19;100.00;100861.22;5095038;28;20024;-76
2022/09/13 08:35:08;;;;;;;28.73;16.70;;;;;;;19.24;100.00;100863.94;5094608;28;20384;-76
2022/09/13 08:37:33;;;;;;;25.33;18.17;;;;;;;19.25;100.00;100860.09;5082351;28;20145;-76
2022/09/13 08:39:59;;;;;;;25.70;20.30;;;;;;;19.30;100.00;100865.53;5075096;28;20122;-76
2022/09/13 08:42:24;;;;;;;26.67;18.27;;;;;;;19.35;100.00;100870.19;5091311;28;20394;-75
2022/09/13 08:44:57;;;;;;;22.13;17.73;;;;;;;19.39;100.00;100867.69;5094948;28;20024;-74
2022/09/13 08:47:39;;;;;;;25.10;18.23;;;;;;;19.43;100.00;100866.00;5099771;28;20512;-80
2022/09/13 08:50:26;;;;;;;25.20;18.33;;;;;;;19.48;100.00;100871.47;5099509;28;20042;-77
2022/09/13 08:53:05;;;;;;;26.08;21.85;;;;;;;19.52;100.00;100869.81;5102223;28;20080;-76
2022/09/13 08:55:46;;;;;;;24.50;19.88;;;;;;;19.60;100.00;100863.72;5079044;28;20114;-75
2022/09/13 08:58:22;;;;;;;23.40;18.33;;;;;;;19.68;100.00;100864.22;5094221;28;20020;-77
2022/09/13 09:00:57;;;;;;;29.00;20.58;;;;;;;19.74;100.00;100863.06;5098392;28;20012;-77
2022/09/13 09:03:41;;;;;;;25.10;18.77;;;;;;;19.82;100.00;100859.72;5091161;28;20044;-77
2022/09/13 09:06:12;;;;;;;26.35;20.00;;;;;;;19.88;100.00;100858.56;5104861;28;20064;-74
2022/09/13 09:08:57;;;;;;;22.85;18.73;;;;;;;19.97;100.00;100856.88;5081436;28;20035;-77
2022/09/13 09:11:33;;;;;;;29.08;19.08;;;;;;;20.03;100.00;100859.56;5089704;28;20081;-75
2022/09/13 09:14:08;;;;;;;23.85;18.45;;;;;;;20.07;100.00;100853.19;5086057;28;20038;-74
2022/09/13 09:16:40;;;;;;;22.60;17.65;;;;;;;20.09;100.00;100850.16;5104319;28;20031;-75
2022/09/13 09:19:15;;;;;;;20.88;16.95;;;;;;;20.17;100.00;100838.56;5101243;28;20016;-76
2022/09/13 09:21:43;;;;;;;20.50;17.65;;;;;;;20.18;100.00;100838.28;5102867;28;20469;-74
2022/09/13 09:24:18;;;;;;;23.42;17.92;;;;;;;20.21;100.00;100833.28;5074468;28;20029;-73
2022/09/13 09:26:43;;;;;;;22.27;17.98;;;;;;;20.31;100.00;100839.50;5079723;28;20032;-72
2022/09/13 09:29:31;;;;;;;23.92;18.60;;;;;;;20.40;100.00;100844.38;5094124;28;20334;-74
2022/09/13 09:32:08;;;;;;;25.45;18.38;;;;;;;20.48;100.00;100846.47;5105452;28;20115;-73
2022/09/13 09:34:41;;;;;;;19.65;15.40;;;;;;;20.54;100.00;100842.53;5106976;28;20070;-74
2022/09/13 09:37:24;;;;;;;21.92;16.48;;;;;;;20.60;100.00;100840.56;5092039;28;20023;-76
2022/09/13 09:39:52;;;;;;;25.48;18.88;;;;;;;20.65;100.00;100848.75;5113986;27;20015;-76
2022/09/13 09:42:27;;;;;;;23.85;18.92;;;;;;;20.71;100.00;100853.09;5112468;28;20023;-74
2022/09/13 09:45:00;;;;;;;23.63;18.05;;;;;;;20.75;100.00;100845.09;5111490;28;20059;-77
2022/09/13 09:47:29;;;;;;;22.25;16.60;;;;;;;20.80;100.00;100845.03;5092219;28;20038;-78
2022/09/13 09:50:09;;;;;;;23.42;16.27;;;;;;;20.87;100.00;100840.78;5099669;28;20063;-76
2022/09/13 09:53:02;;;;;;;19.60;14.75;;;;;;;20.90;100.00;100839.41;5093341;28;20035;-75
2022/09/13 09:55:48;;;;;;;19.73;14.48;;;;;;;20.95;100.00;100844.00;5093635;28;20035;-75
2022/09/13 09:58:17;;;;;;;18.15;13.27;;;;;;;20.99;100.00;100837.63;5092840;28;20024;-75
2022/09/13 10:00:50;;;;;;;18.15;13.25;;;;;;;21.05;100.00;100841.94;5108644;28;20103;-76
2022/09/13 10:03:18;;;;;;;20.67;15.15;;;;;;;21.10;100.00;100843.00;5096904;28;20046;-76
2022/09/13 10:05:44;;;;;;;24.48;15.77;;;;;;;21.16;100.00;100841.81;5093432;28;20034;-76
2022/09/13 10:08:25;;;;;;;25.40;15.70;;;;;;;21.19;100.00;100843.97;5093078;28;20024;-77
2022/09/13 10:10:56;;;;;;;17.38;12.85;;;;;;;21.25;100.00;100843.56;5080942;28;20040;-78
2022/09/13 10:13:22;;;;;;;16.33;13.23;;;;;;;21.28;100.00;100839.41;5105353;28;20020;-75
2022/09/13 10:16:00;;;;;;;15.75;11.65;;;;;;;21.36;100.00;100838.78;5091368;28;20031;-76
2022/09/13 10:18:30;;;;;;;18.25;12.38;;;;;;;21.35;100.00;100834.38;5083624;28;20032;-75
2022/09/13 10:21:04;;;;;;;19.20;12.80;;;;;;;21.41;100.00;100840.63;5086245;28;20024;-74
2022/09/13 10:23:31;;;;;;;18.80;12.85;;;;;;;21.53;100.00;100826.41;5095373;28;20042;-74
2022/09/13 10:26:07;;;;;;;19.02;11.98;;;;;;;21.66;100.00;100838.59;5081646;28;20528;-76
2022/09/13 10:28:45;;;;;;;18.52;13.48;;;;;;;21.72;100.00;100832.72;5091411;28;20464;-74
2022/09/13 10:31:14;;;;;;;18.40;12.93;;;;;;;21.68;100.00;100830.84;5094308;28;20506;-74
2022/09/13 10:33:45;;;;;;;19.00;14.07;;;;;;;21.57;100.00;100835.72;5096578;28;20039;-74
2022/09/13 10:36:26;;;;;;;17.48;14.43;;;;;;;21.61;100.00;100839.50;5091929;28;20131;-75
2022/09/13 10:39:16;;;;;;;20.58;15.25;;;;;;;21.63;100.00;100840.03;5093101;28;20491;-75
2022/09/13 10:41:50;;;;;;;22.58;15.27;;;;;;;21.61;100.00;100831.25;5090332;28;20111;-74
2022/09/13 10:44:29;;;;;;;22.60;14.02;;;;;;;21.57;100.00;100832.97;5084979;28;20055;-75
2022/09/13 10:46:57;;;;;;;20.85;14.32;;;;;;;21.57;100.00;100838.47;5081742;28;20024;-77
2022/09/13 10:49:41;;;;;;;18.92;13.13;;;;;;;21.55;100.00;100829.69;5090493;28;20370;-78
2022/09/13 10:52:22;;;;;;;21.25;13.60;;;;;;;21.55;100.00;100844.28;5091029;28;20115;-78
2022/09/13 10:54:47;;;;;;;18.60;14.23;;;;;;;21.47;100.00;100830.34;5092651;28;20061;-74
2022/09/13 10:57:35;;;;;;;21.02;12.95;;;;;;;21.49;100.00;100822.59;5091572;28;20029;-74
2022/09/13 11:00:02;;;;;;;18.73;12.90;;;;;;;21.49;100.00;100817.09;5098756;28;20028;-76
2022/09/13 11:02:49;;;;;;;17.77;12.68;;;;;;;21.48;100.00;100810.75;5090410;28;20110;-76
2022/09/13 11:05:28;;;;;;;18.70;11.10;;;;;;;21.53;100.00;100813.47;5092387;28;20097;-73
2022/09/13 11:07:59;;;;;;;15.23;10.45;;;;;;;21.60;100.00;100804.81;5092546;28;20085;-75
2022/09/13 11:10:39;;;;;;;18.63;12.07;;;;;;;21.64;100.00;100803.09;5092287;28;20027;-79
2022/09/13 11:13:21;;;;;;;18.95;11.90;;;;;;;21.74;100.00;100802.09;5090896;28;20032;-76
2022/09/13 11:16:06;;;;;;;19.75;12.45;;;;;;;21.74;100.00;100805.69;5092573;28;20032;-75
2022/09/13 11:18:43;;;;;;;16.23;11.52;;;;;;;21.85;100.00;100802.78;5083882;28;20032;-73
2022/09/13 11:21:20;;;;;;;15.18;11.55;;;;;;;21.93;100.00;100800.13;5090903;28;20024;-78
2022/09/13 11:23:51;;;;;;;17.92;10.45;;;;;;;22.03;100.00;100790.88;5074712;28;20025;-76
2022/09/13 11:26:35;;;;;;;;;;;;;;;22.13;100.00;100790.69;5092256;28;20024;-76
2022/09/13 11:29:20;;;;;;;12.95;8.60;;;;;;;22.26;98.85;100796.50;5091929;28;19912;-75
2022/09/13 11:32:00;;;;;;;13.48;8.60;;;;;;;22.39;99.07;100789.38;5106270;28;20036;-77
2022/09/13 11:34:53;;;;;;;16.48;8.95;;;;;;;22.44;95.62;100795.63;5089873;28;20472;-72
2022/09/13 11:37:51;;;;;;;10.35;8.60;;;;;;;22.54;94.61;100788.25;5075389;28;20036;-74
2022/09/13 11:40:24;;;;;;;16.98;9.45;;;;;;;22.70;97.09;100794.28;5003938;28;20054;-74
2022/09/13 11:43:29;;;;;;;15.13;8.82;;;;;;;22.89;98.13;100796.88;5075494;28;20028;-73
2022/09/13 11:45:55;;;;;;;13.52;8.98;;;;;;;22.98;91.46;100795.03;5099193;28;20035;-73
2022/09/13 11:48:44;;;;;;;13.43;8.70;;;;;;;23.07;91.13;100798.69;5116190;28;20024;-74
2022/09/13 11:51:26;;;;;;;7.18;5.50;;;;;;;23.10;87.40;100797.28;5116092;28;20071;-75
2022/09/13 11:54:12;;;;;;;9.88;5.28;;;;;;;23.01;84.63;100792.47;5095727;28;20027;-73
2022/09/13 11:56:43;;;;;;;11.32;5.93;;;;;;;22.94;86.74;100788.50;5092053;28;20472;-73
2022/09/13 11:59:31;;;;;;;10.60;7.05;;;;;;;22.97;87.66;100787.88;5095584;28;20024;-76
2022/09/13 12:02:02;;;;;;;11.38;7.40;;;;;;;22.92;85.69;100788.00;5089909;28;20115;-73
2022/09/13 12:04:36;;;;;;;9.45;5.93;;;;;;;22.92;82.32;100788.81;5095079;28;20432;-74
2022/09/13 12:07:49;;;;;;;10.45;5.57;;;;;;;22.96;84.81;100786.25;5097019;28;20137;-72
2022/09/13 12:10:22;;;;;;;8.98;6.10;;;;;;;23.15;91.79;100789.69;5065480;28;20058;-73
2022/09/13 12:12:50;;;;;;;9.77;5.03;;;;;;;23.26;79.80;100792.22;5098927;28;20020;-79
2022/09/13 12:15:24;;;;;;;8.45;4.70;;;;;;;23.34;83.00;100788.69;5085210;28;20078;-73
2022/09/13 12:18:16;;;;;;;10.85;5.35;;;;;;;23.29;79.83;100781.34;5075209;28;20024;-74
2022/09/13 12:20:47;;;;;;;7.22;5.55;;;;;;;23.34;77.79;100785.94;5074949;28;20016;-72
2022/09/13 12:23:24;;;;;;;8.65;6.07;;;;;;;23.53;79.84;100781.06;5081666;28;20020;-72
2022/09/13 12:25:59;;;;;;;7.80;5.30;;;;;;;23.53;75.65;100775.53;5091960;28;20472;-73
2022/09/13 12:28:38;;;;;;;7.10;5.30;;;;;;;23.49;77.62;100771.78;5094874;28;20024;-73
2022/09/13 12:31:14;;;;;;;7.93;4.55;;;;;;;23.62;80.56;100766.50;5094733;28;20376;-72
2022/09/13 12:33:41;;;;;;;10.52;5.22;;;;;;;23.79;80.25;100766.59;5083235;28;20056;-72